createdAt,value
2019-04-01T00:02:24.045Z,99.90
2019-04-01T00:04:52.495Z,99.90
2019-04-01T00:07:20.933Z,99.90
2019-04-01T00:09:49.379Z,99.90
2019-04-01T00:12:17.813Z,99.90
2019-04-01T00:14:46.251Z,99.90
2019-04-01T00:17:14.703Z,99.90
2019-04-01T00:19:43.146Z,99.90
2019-04-01T00:22:11.569Z,99.90
2019-04-01T00:24:40.164Z,99.90
2019-04-01T00:27:08.603Z,99.90
2019-04-01T00:29:37.047Z,99.90
2019-04-01T00:32:05.506Z,99.90
2019-04-01T00:34:33.962Z,99.90
2019-04-01T00:37:02.378Z,99.90
2019-04-01T00:39:30.824Z,99.90
2019-04-01T00:42:00.951Z,99.90
2019-04-01T00:44:29.391Z,99.90
2019-04-01T00:46:57.824Z,99.90
2019-04-01T00:49:26.293Z,99.90
2019-04-01T00:51:54.818Z,99.90
2019-04-01T00:54:23.275Z,99.90
2019-04-01T00:56:51.710Z,99.90
2019-04-01T00:59:20.137Z,99.90
2019-04-01T01:01:48.572Z,99.90
2019-04-01T01:04:17.011Z,99.90
2019-04-01T01:06:45.471Z,99.90
2019-04-01T01:09:13.899Z,99.90
2019-04-01T01:11:42.346Z,99.90
2019-04-01T01:14:10.852Z,99.90
2019-04-01T01:16:40.203Z,99.90
2019-04-01T01:19:08.645Z,99.90
2019-04-01T01:21:37.742Z,99.90
2019-04-01T01:24:06.188Z,99.90
2019-04-01T01:26:34.672Z,99.90
2019-04-01T01:29:03.207Z,99.90
2019-04-01T01:31:31.640Z,99.90
2019-04-01T01:34:00.079Z,99.90
2019-04-01T01:36:28.649Z,99.90
2019-04-01T01:38:57.087Z,99.90
2019-04-01T01:41:25.528Z,99.90
2019-04-01T01:43:53.983Z,99.90
2019-04-01T01:46:22.398Z,99.90
2019-04-01T01:48:50.851Z,99.90
2019-04-01T01:51:19.287Z,99.90
2019-04-01T01:53:47.743Z,99.90
2019-04-01T01:56:16.191Z,99.90
2019-04-01T01:58:44.624Z,99.90
2019-04-01T02:01:13.068Z,99.90
2019-04-01T02:03:41.527Z,99.90
2019-04-01T02:06:10.399Z,99.90
2019-04-01T02:08:38.845Z,99.90
2019-04-01T02:11:07.304Z,99.90
2019-04-01T02:13:35.776Z,99.90
2019-04-01T02:16:04.235Z,99.90
2019-04-01T02:18:32.678Z,99.90
2019-04-01T02:21:01.132Z,99.90
2019-04-01T02:23:29.571Z,99.90
2019-04-01T02:25:58.022Z,99.90
2019-04-01T02:28:26.490Z,99.90
2019-04-01T02:30:54.975Z,99.90
2019-04-01T02:33:23.391Z,99.90
2019-04-01T02:35:51.833Z,99.90
2019-04-01T02:38:20.252Z,99.90
2019-04-01T02:40:48.724Z,99.90
2019-04-01T02:43:17.142Z,99.90
2019-04-01T02:45:45.603Z,99.90
2019-04-01T02:48:14.047Z,99.90
2019-04-01T02:50:42.494Z,99.90
2019-04-01T02:53:10.907Z,99.90
2019-04-01T02:55:39.367Z,99.90
2019-04-01T02:58:07.805Z,99.90
2019-04-01T03:00:36.389Z,99.90
2019-04-01T03:03:04.849Z,99.90
2019-04-01T03:05:33.276Z,99.90
2019-04-01T03:08:01.740Z,99.90
2019-04-01T03:10:30.184Z,99.90
2019-04-01T03:12:58.647Z,99.90
2019-04-01T03:15:27.138Z,99.90
2019-04-01T03:17:55.591Z,99.90
2019-04-01T03:20:24.439Z,99.90
2019-04-01T03:22:52.897Z,99.90
2019-04-01T03:25:21.346Z,99.90
2019-04-01T03:27:49.817Z,99.90
2019-04-01T03:30:18.324Z,99.90
2019-04-01T03:32:46.779Z,99.90
2019-04-01T03:35:15.242Z,99.90
2019-04-01T03:37:43.774Z,99.90
2019-04-01T03:40:12.267Z,99.90
2019-04-01T03:42:40.737Z,99.90
2019-04-01T03:45:09.502Z,99.90
2019-04-01T03:47:37.971Z,99.90
2019-04-01T03:50:06.420Z,99.90
2019-04-01T03:52:34.896Z,99.90
2019-04-01T03:55:03.504Z,99.90
2019-04-01T03:57:32.074Z,99.90
2019-04-01T04:00:00.823Z,99.90
2019-04-01T04:02:29.368Z,99.90
2019-04-01T04:04:57.790Z,99.90
2019-04-01T04:07:26.241Z,99.90
2019-04-01T04:09:54.737Z,99.90
2019-04-01T04:12:23.191Z,99.90
2019-04-01T04:14:51.824Z,99.90
2019-04-01T04:17:20.377Z,99.90
2019-04-01T04:19:48.818Z,99.90
2019-04-01T04:22:17.256Z,99.90
2019-04-01T04:24:45.720Z,99.90
2019-04-01T04:27:14.176Z,99.90
2019-04-01T04:29:42.620Z,99.90
2019-04-01T04:32:11.118Z,99.90
2019-04-01T04:34:39.636Z,99.90
2019-04-01T04:37:08.102Z,99.90
2019-04-01T04:39:36.541Z,99.90
2019-04-01T04:42:05.027Z,99.90
2019-04-01T04:44:33.457Z,99.90
2019-04-01T04:47:01.915Z,99.90
2019-04-01T04:49:30.368Z,99.90
2019-04-01T04:51:58.793Z,99.90
2019-04-01T04:54:27.242Z,99.90
2019-04-01T04:56:55.755Z,99.90
2019-04-01T04:59:24.196Z,99.90
2019-04-01T05:01:52.718Z,99.90
2019-04-01T05:04:21.179Z,99.90
2019-04-01T05:06:49.639Z,99.90
2019-04-01T05:09:18.090Z,99.90
2019-04-01T05:11:46.564Z,99.90
2019-04-01T05:14:15.014Z,99.90
2019-04-01T05:16:43.459Z,99.90
2019-04-01T05:19:11.955Z,99.90
2019-04-01T05:21:41.649Z,99.90
2019-04-01T05:24:11.064Z,99.90
2019-04-01T05:26:41.672Z,99.90
2019-04-01T05:29:10.903Z,99.90
2019-04-01T05:31:41.335Z,99.90
2019-04-01T05:34:12.884Z,99.90
2019-04-01T05:36:41.330Z,99.90
2019-04-01T05:39:09.842Z,99.90
2019-04-01T05:41:38.268Z,99.90
2019-04-01T05:44:06.716Z,99.90
2019-04-01T05:46:35.246Z,99.90
2019-04-01T05:49:03.743Z,99.90
2019-04-01T05:51:32.189Z,99.90
2019-04-01T05:54:00.630Z,99.90
2019-04-01T05:56:29.069Z,99.90
2019-04-01T05:58:57.530Z,99.90
2019-04-01T06:01:30.316Z,99.90
2019-04-01T06:03:58.752Z,99.90
2019-04-01T06:06:27.198Z,99.90
2019-04-01T06:08:55.675Z,99.90
2019-04-01T06:11:24.096Z,99.90
2019-04-01T06:13:52.610Z,99.90
2019-04-01T06:16:21.251Z,99.90
2019-04-01T06:18:49.715Z,99.90
2019-04-01T06:21:18.151Z,99.90
2019-04-01T06:23:46.615Z,99.90
2019-04-01T06:26:15.198Z,99.90
2019-04-01T06:28:43.891Z,99.90
2019-04-01T06:31:12.407Z,99.90
2019-04-01T06:33:41.358Z,99.90
2019-04-01T06:36:10.291Z,99.90
2019-04-01T06:38:38.805Z,99.90
2019-04-01T06:41:07.269Z,99.90
2019-04-01T06:43:36.169Z,99.90
2019-04-01T06:46:06.208Z,99.90
2019-04-01T06:48:34.881Z,99.90
2019-04-01T06:51:03.464Z,99.90
2019-04-01T06:53:34.730Z,99.90
2019-04-01T06:56:03.261Z,99.90
2019-04-01T06:58:31.714Z,99.90
2019-04-01T07:01:00.163Z,99.90
2019-04-01T07:03:29.254Z,99.90
2019-04-01T07:05:57.757Z,99.90
2019-04-01T07:08:26.184Z,99.90
2019-04-01T07:10:54.632Z,99.90
2019-04-01T07:13:23.136Z,99.90
2019-04-01T07:15:51.852Z,99.90
2019-04-01T07:18:20.327Z,99.90
2019-04-01T07:20:48.963Z,99.90
2019-04-01T07:23:18.327Z,99.90
2019-04-01T07:25:46.749Z,99.90
2019-04-01T07:28:15.203Z,99.90
2019-04-01T07:30:43.625Z,99.90
2019-04-01T07:33:12.102Z,99.90
2019-04-01T07:35:41.204Z,99.70
2019-04-01T07:38:09.651Z,99.90
2019-04-01T07:40:38.103Z,98.20
2019-04-01T07:43:06.550Z,98.00
2019-04-01T07:45:35.167Z,96.60
2019-04-01T07:48:03.634Z,97.00
2019-04-01T07:50:32.133Z,96.50
2019-04-01T07:53:00.826Z,97.60
2019-04-01T07:55:29.493Z,97.30
2019-04-01T07:57:59.911Z,96.50
2019-04-01T08:00:28.506Z,98.10
2019-04-01T08:02:57.115Z,96.00
2019-04-01T08:05:26.241Z,89.50
2019-04-01T08:07:55.105Z,90.80
2019-04-01T08:10:23.567Z,88.60
2019-04-01T08:12:51.997Z,87.30
2019-04-01T08:15:21.518Z,82.80
2019-04-01T08:17:50.064Z,72.50
2019-04-01T08:20:18.744Z,82.20
2019-04-01T08:22:47.347Z,71.10
2019-04-01T08:25:15.784Z,66.00
2019-04-01T08:27:44.260Z,58.90
2019-04-01T08:30:12.847Z,59.20
2019-04-01T08:32:41.322Z,59.80
2019-04-01T08:35:09.856Z,73.60
2019-04-01T08:37:40.204Z,75.10
2019-04-01T08:40:09.091Z,53.00
2019-04-01T08:42:37.512Z,52.20
2019-04-01T08:45:07.973Z,59.10
2019-04-01T08:47:36.460Z,59.60
2019-04-01T08:50:08.043Z,54.70
2019-04-01T08:52:36.468Z,51.90
2019-04-01T08:55:06.752Z,46.70
2019-04-01T08:57:35.199Z,47.80
2019-04-01T09:00:04.986Z,47.80
2019-04-01T09:02:33.420Z,49.80
2019-04-01T09:05:01.890Z,48.10
2019-04-01T09:07:30.324Z,45.90
2019-04-01T09:09:59.365Z,44.30
2019-04-01T09:12:27.928Z,43.50
2019-04-01T09:14:57.187Z,42.90
2019-04-01T09:17:25.631Z,46.60
2019-04-01T09:19:54.071Z,42.40
2019-04-01T09:22:22.508Z,42.60
2019-04-01T09:24:50.948Z,45.10
2019-04-01T09:27:19.395Z,45.40
2019-04-01T09:29:47.836Z,45.40
2019-04-01T09:32:16.296Z,51.90
2019-04-01T09:34:44.735Z,49.80
2019-04-01T09:37:13.255Z,50.30
2019-04-01T09:39:41.702Z,48.80
2019-04-01T09:42:10.164Z,42.80
2019-04-01T09:44:38.589Z,42.90
2019-04-01T09:47:07.037Z,40.70
2019-04-01T09:49:35.485Z,41.60
2019-04-01T09:52:04.119Z,41.20
2019-04-01T09:54:32.559Z,40.20
2019-04-01T09:57:16.214Z,39.60
2019-04-01T09:59:31.202Z,38.80
2019-04-01T10:01:59.644Z,38.90
2019-04-01T10:04:28.072Z,42.30
2019-04-01T10:06:56.516Z,40.10
2019-04-01T10:09:24.938Z,44.40
2019-04-01T10:11:53.374Z,40.80
2019-04-01T10:14:21.821Z,41.60
2019-04-01T10:16:50.244Z,38.20
2019-04-01T10:19:18.827Z,39.20
2019-04-01T10:21:47.304Z,41.00
2019-04-01T10:24:15.744Z,42.20
2019-04-01T10:26:44.176Z,39.40
2019-04-01T10:29:12.632Z,40.90
2019-04-01T10:31:41.619Z,38.80
2019-04-01T10:34:10.076Z,35.80
2019-04-01T10:36:38.503Z,36.40
2019-04-01T10:39:07.740Z,34.20
2019-04-01T10:41:36.631Z,34.60
2019-04-01T10:44:05.114Z,35.00
2019-04-01T10:46:33.649Z,34.80
2019-04-01T10:49:02.189Z,34.90
2019-04-01T10:51:30.727Z,36.40
2019-04-01T10:53:59.275Z,36.30
2019-04-01T10:56:27.753Z,34.50
2019-04-01T10:58:56.241Z,33.60
2019-04-01T11:01:24.859Z,32.90
2019-04-01T11:03:53.305Z,31.40
2019-04-01T11:06:21.823Z,31.40
2019-04-01T11:08:50.379Z,30.90
2019-04-01T11:11:18.830Z,32.70
2019-04-01T11:13:47.287Z,32.10
2019-04-01T11:16:16.207Z,31.90
2019-04-01T11:18:45.383Z,29.70
2019-04-01T11:21:13.863Z,31.20
2019-04-01T11:23:42.287Z,30.00
2019-04-01T11:26:11.659Z,30.50
2019-04-01T11:28:40.123Z,32.00
2019-04-01T11:31:08.562Z,31.10
2019-04-01T11:33:37.059Z,32.60
2019-04-01T11:36:05.533Z,31.10
2019-04-01T11:38:33.998Z,32.60
2019-04-01T11:41:02.483Z,30.90
2019-04-01T11:43:31.094Z,30.00
2019-04-01T11:45:59.591Z,31.40
2019-04-01T11:48:28.055Z,30.90
2019-04-01T11:50:56.503Z,30.00
2019-04-01T11:53:25.007Z,30.60
2019-04-01T11:55:53.453Z,31.50
2019-04-01T11:58:21.899Z,32.60
2019-04-01T12:00:50.339Z,31.00
2019-04-01T12:03:19.082Z,30.50
2019-04-01T12:05:48.262Z,31.50
2019-04-01T12:08:16.705Z,31.50
2019-04-01T12:10:45.180Z,31.90
2019-04-01T12:13:13.612Z,30.70
2019-04-01T12:15:42.320Z,29.80
2019-04-01T12:18:11.679Z,30.40
2019-04-01T12:20:40.133Z,32.40
2019-04-01T12:23:08.576Z,30.00
2019-04-01T12:25:37.386Z,28.70
2019-04-01T12:28:05.809Z,29.00
2019-04-01T12:30:34.266Z,29.70
2019-04-01T12:33:02.688Z,30.60
2019-04-01T12:35:31.151Z,30.40
2019-04-01T12:37:59.608Z,30.90
2019-04-01T12:40:28.048Z,29.20
2019-04-01T12:42:56.475Z,29.00
2019-04-01T12:45:24.933Z,28.00
2019-04-01T12:47:53.384Z,29.30
2019-04-01T12:50:21.847Z,28.70
2019-04-01T12:52:50.283Z,28.00
2019-04-01T12:55:18.738Z,28.10
2019-04-01T12:57:48.541Z,29.10
2019-04-01T13:00:17.376Z,28.90
2019-04-01T13:02:45.811Z,27.60
2019-04-01T13:05:14.302Z,29.10
2019-04-01T13:07:43.032Z,28.40
2019-04-01T13:10:12.213Z,28.60
2019-04-01T13:12:40.697Z,28.70
2019-04-01T13:15:09.598Z,29.70
2019-04-01T13:17:38.035Z,28.10
2019-04-01T13:20:07.497Z,28.60
2019-04-01T13:22:35.968Z,28.70
2019-04-01T13:25:05.789Z,27.70
2019-04-01T13:27:34.378Z,27.50
2019-04-01T13:30:02.930Z,28.20
2019-04-01T13:32:31.409Z,29.20
2019-04-01T13:34:59.845Z,29.20
2019-04-01T13:37:28.295Z,30.00
2019-04-01T13:39:56.732Z,29.10
2019-04-01T13:42:25.198Z,30.00
2019-04-01T13:44:53.694Z,29.90
2019-04-01T13:47:22.132Z,28.40
2019-04-01T13:49:50.572Z,28.40
2019-04-01T13:52:19.028Z,28.40
2019-04-01T13:54:47.535Z,30.00
2019-04-01T13:57:16.003Z,30.00
2019-04-01T13:59:49.480Z,29.60
2019-04-01T14:02:14.668Z,29.20
2019-04-01T14:04:43.133Z,27.40
2019-04-01T14:07:12.103Z,27.70
2019-04-01T14:09:40.524Z,27.00
2019-04-01T14:12:08.968Z,27.20
2019-04-01T14:14:37.394Z,27.80
2019-04-01T14:17:06.061Z,27.20
2019-04-01T14:19:34.571Z,26.10
2019-04-01T14:22:03.010Z,26.30
2019-04-01T14:24:31.462Z,27.30
2019-04-01T14:26:59.872Z,27.70
2019-04-01T14:29:28.334Z,28.30
2019-04-01T14:31:56.767Z,28.00
2019-04-01T14:34:25.232Z,28.60
2019-04-01T14:36:53.668Z,30.10
2019-04-01T14:39:22.128Z,29.90
2019-04-01T14:41:50.572Z,29.80
2019-04-01T14:44:19.012Z,30.20
2019-04-01T14:46:47.456Z,31.10
2019-04-01T14:49:15.914Z,32.50
2019-04-01T14:51:44.348Z,32.70
2019-04-01T14:54:12.808Z,32.50
2019-04-01T14:56:42.164Z,33.30
2019-04-01T14:59:10.699Z,33.60
2019-04-01T15:01:39.144Z,33.40
2019-04-01T15:04:07.599Z,32.10
2019-04-01T15:06:36.016Z,32.70
2019-04-01T15:09:06.672Z,33.00
2019-04-01T15:11:35.096Z,32.90
2019-04-01T15:14:03.554Z,32.70
2019-04-01T15:16:31.989Z,33.40
2019-04-01T15:19:00.443Z,32.60
2019-04-01T15:21:28.889Z,33.10
2019-04-01T15:23:57.919Z,33.30
2019-04-01T15:26:26.743Z,36.20
2019-04-01T15:28:55.192Z,34.80
2019-04-01T15:31:24.554Z,34.90
2019-04-01T15:33:53.862Z,34.60
2019-04-01T15:36:22.308Z,33.80
2019-04-01T15:38:51.084Z,33.70
2019-04-01T15:41:19.867Z,34.20
2019-04-01T15:43:48.384Z,35.40
2019-04-01T15:46:16.834Z,33.60
2019-04-01T15:48:45.278Z,35.80
2019-04-01T15:51:13.711Z,34.80
2019-04-01T15:53:42.367Z,34.40
2019-04-01T15:56:10.813Z,34.60
2019-04-01T15:58:39.257Z,35.40
2019-04-01T16:01:07.706Z,34.40
2019-04-01T16:03:36.153Z,33.80
2019-04-01T16:06:07.432Z,34.20
2019-04-01T16:08:34.817Z,34.10
2019-04-01T16:11:03.273Z,34.00
2019-04-01T16:13:31.727Z,33.30
2019-04-01T16:16:00.186Z,33.40
2019-04-01T16:18:28.613Z,32.90
2019-04-01T16:20:59.402Z,32.70
2019-04-01T16:23:27.252Z,32.90
2019-04-01T16:25:55.701Z,33.40
2019-04-01T16:28:24.147Z,33.50
2019-04-01T16:30:52.603Z,33.40
2019-04-01T16:33:21.043Z,34.30
2019-04-01T16:35:49.510Z,33.70
2019-04-01T16:38:17.932Z,33.50
2019-04-01T16:40:47.065Z,34.40
2019-04-01T16:43:17.286Z,34.80
2019-04-01T16:45:46.054Z,35.30
2019-04-01T16:48:14.481Z,35.20
2019-04-01T16:50:42.943Z,35.00
2019-04-01T16:53:12.303Z,34.80
2019-04-01T16:55:40.757Z,34.80
2019-04-01T16:58:09.221Z,34.80
2019-04-01T17:00:37.746Z,35.10
2019-04-01T17:03:06.183Z,35.50
2019-04-01T17:05:34.772Z,35.00
2019-04-01T17:08:03.207Z,35.30
2019-04-01T17:10:33.040Z,35.70
2019-04-01T17:13:01.740Z,36.00
2019-04-01T17:15:30.209Z,36.70
2019-04-01T17:17:58.653Z,38.10
2019-04-01T17:20:27.107Z,39.50
2019-04-01T17:22:55.551Z,38.80
2019-04-01T17:25:24.027Z,38.70
2019-04-01T17:27:52.474Z,39.00
2019-04-01T17:30:20.961Z,39.20
2019-04-01T17:32:49.414Z,39.70
2019-04-01T17:35:17.855Z,39.50
2019-04-01T17:37:46.298Z,39.80
2019-04-01T17:40:17.075Z,40.00
2019-04-01T17:42:45.428Z,40.40
2019-04-01T17:45:23.819Z,40.80
2019-04-01T17:47:52.269Z,41.20
2019-04-01T17:50:20.730Z,41.30
2019-04-01T17:52:49.238Z,41.70
2019-04-01T17:55:17.686Z,42.00
2019-04-01T17:57:46.523Z,42.40
2019-04-01T18:00:18.094Z,42.90
2019-04-01T18:02:46.536Z,43.70
2019-04-01T18:05:19.418Z,43.90
2019-04-01T18:07:47.875Z,44.40
2019-04-01T18:10:16.684Z,45.80
2019-04-01T18:12:45.163Z,45.60
2019-04-01T18:15:13.817Z,45.90
2019-04-01T18:17:42.635Z,46.60
2019-04-01T18:20:11.438Z,48.30
2019-04-01T18:22:39.879Z,48.50
2019-04-01T18:25:08.525Z,50.60
2019-04-01T18:27:36.945Z,51.80
2019-04-01T18:30:07.896Z,52.40
2019-04-01T18:32:36.320Z,52.50
2019-04-01T18:35:06.701Z,55.20
2019-04-01T18:37:35.121Z,55.70
2019-04-01T18:40:04.520Z,57.30
2019-04-01T18:42:32.964Z,59.60
2019-04-01T18:45:01.423Z,61.30
2019-04-01T18:47:29.943Z,62.20
2019-04-01T18:49:58.554Z,65.60
2019-04-01T18:52:27.060Z,70.60
2019-04-01T18:54:55.554Z,70.60
2019-04-01T18:57:24.129Z,69.60
2019-04-01T18:59:52.636Z,71.30
2019-04-01T19:02:21.111Z,72.20
2019-04-01T19:04:49.603Z,78.50
2019-04-01T19:07:18.030Z,78.90
2019-04-01T19:09:46.469Z,79.80
2019-04-01T19:12:14.905Z,81.60
2019-04-01T19:14:43.425Z,86.20
2019-04-01T19:17:14.214Z,84.30
2019-04-01T19:19:43.002Z,84.30
2019-04-01T19:22:11.516Z,86.40
2019-04-01T19:24:40.036Z,87.30
2019-04-01T19:27:08.502Z,87.70
2019-04-01T19:29:36.912Z,89.30
2019-04-01T19:32:05.367Z,89.60
2019-04-01T19:34:33.789Z,90.60
2019-04-01T19:37:02.225Z,91.00
2019-04-01T19:39:30.669Z,91.90
2019-04-01T19:41:59.119Z,93.30
2019-04-01T19:44:27.540Z,92.50
2019-04-01T19:46:56.004Z,92.70
2019-04-01T19:49:24.416Z,93.20
2019-04-01T19:51:52.857Z,93.10
2019-04-01T19:54:30.668Z,93.10
2019-04-01T19:56:51.444Z,92.90
2019-04-01T19:59:19.923Z,93.50
2019-04-01T20:01:48.387Z,93.90
2019-04-01T20:04:16.852Z,94.90
2019-04-01T20:06:45.268Z,93.90
2019-04-01T20:09:13.701Z,94.00
2019-04-01T20:11:43.943Z,94.50
2019-04-01T20:14:12.933Z,95.00
2019-04-01T20:16:41.589Z,94.90
2019-04-01T20:19:10.084Z,94.60
2019-04-01T20:21:38.537Z,94.70
2019-04-01T20:24:07.055Z,95.10
2019-04-01T20:26:35.499Z,95.10
2019-04-01T20:29:04.414Z,95.30
2019-04-01T20:31:32.845Z,95.00
2019-04-01T20:34:04.189Z,95.00
2019-04-01T20:36:31.697Z,95.10
2019-04-01T20:39:00.170Z,94.70
2019-04-01T20:41:28.631Z,94.40
2019-04-01T20:43:57.082Z,94.50
2019-04-01T20:46:25.495Z,94.50
2019-04-01T20:48:53.964Z,94.60
2019-04-01T20:51:22.401Z,94.90
2019-04-01T20:53:51.326Z,95.70
2019-04-01T20:56:20.259Z,95.00
2019-04-01T20:58:48.792Z,94.80
2019-04-01T21:01:17.231Z,94.70
2019-04-01T21:03:45.692Z,94.90
2019-04-01T21:06:14.133Z,95.20
2019-04-01T21:08:43.075Z,95.40
2019-04-01T21:11:11.653Z,95.80
2019-04-01T21:13:40.123Z,96.10
2019-04-01T21:16:08.561Z,96.50
2019-04-01T21:18:36.981Z,96.50
2019-04-01T21:21:05.417Z,96.40
2019-04-01T21:23:33.855Z,96.50
2019-04-01T21:26:02.316Z,96.40
2019-04-01T21:28:30.733Z,96.60
2019-04-01T21:30:59.522Z,96.80
2019-04-01T21:33:28.102Z,96.90
2019-04-01T21:35:56.624Z,97.10
2019-04-01T21:38:25.057Z,97.10
2019-04-01T21:40:53.529Z,97.30
2019-04-01T21:43:22.020Z,97.40
2019-04-01T21:45:50.466Z,97.30
2019-04-01T21:48:19.260Z,98.10
2019-04-01T21:50:47.696Z,97.80
2019-04-01T21:53:16.129Z,97.70
2019-04-01T21:55:44.571Z,97.70
2019-04-01T21:58:13.282Z,97.70
2019-04-01T22:00:45.999Z,97.70
2019-04-01T22:03:14.443Z,97.80
2019-04-01T22:05:43.433Z,97.90
2019-04-01T22:08:13.241Z,97.80
2019-04-01T22:10:41.656Z,97.90
2019-04-01T22:13:10.177Z,98.00
2019-04-01T22:15:38.613Z,98.10
2019-04-01T22:18:07.108Z,98.10
2019-04-01T22:20:35.615Z,97.70
2019-04-01T22:23:04.121Z,98.00
2019-04-01T22:25:32.564Z,97.90
2019-04-01T22:28:01.000Z,97.90
2019-04-01T22:30:29.427Z,98.10
2019-04-01T22:32:57.879Z,98.20
2019-04-01T22:35:37.801Z,98.20
2019-04-01T22:37:56.475Z,98.20
2019-04-01T22:40:24.975Z,98.50
2019-04-01T22:42:53.436Z,98.80
2019-04-01T22:45:21.867Z,98.80
2019-04-01T22:47:50.324Z,98.80
2019-04-01T22:50:18.759Z,98.90
2019-04-01T22:52:47.216Z,99.10
2019-04-01T22:55:15.647Z,99.10
2019-04-01T22:57:44.072Z,99.80
2019-04-01T23:00:13.470Z,99.50
2019-04-01T23:02:42.400Z,99.60
2019-04-01T23:05:11.328Z,99.60
2019-04-01T23:07:39.749Z,99.50
2019-04-01T23:10:08.541Z,99.60
2019-04-01T23:12:36.957Z,99.90
2019-04-01T23:15:07.234Z,99.70
2019-04-01T23:17:35.671Z,99.90
2019-04-01T23:20:06.263Z,99.90
2019-04-01T23:22:34.693Z,99.90
2019-04-01T23:25:03.152Z,99.90
2019-04-01T23:27:31.942Z,99.90
2019-04-01T23:30:00.476Z,99.90
2019-04-01T23:32:29.187Z,99.80
2019-04-01T23:34:57.665Z,99.70
2019-04-01T23:37:26.114Z,99.90
2019-04-01T23:39:54.674Z,99.90
2019-04-01T23:42:23.183Z,99.90
2019-04-01T23:44:52.276Z,99.90
2019-04-01T23:47:21.129Z,99.90
2019-04-01T23:49:49.592Z,99.90
2019-04-01T23:52:18.026Z,99.90
2019-04-01T23:54:46.459Z,99.90
2019-04-01T23:57:14.905Z,99.90
2019-04-01T23:59:43.491Z,99.90
